ADDS METAR Data INFO
IDs: Format: Raw Decoded Include TAF

Data at: 2318 UTC 15 Jul 2018

KHNR 152315Z AUTO VRB03KT 10SM 30/20 A2999 RMK AO2
KHNR 152255Z AUTO 00000KT 10SM 30/20 A2999 RMK AO2
KHNR 152235Z AUTO 00000KT 10SM 30/19 A2999 RMK AO2
KHNR 152215Z AUTO 07005KT 10SM 30/19 A2999 RMK AO2
KHNR 152155Z AUTO 02006KT 10SM 30/19 A2999 RMK AO2
KHNR 152135Z AUTO 03006KT 10SM 30/19 A2999 RMK AO2
KHNR 152115Z AUTO 34005KT 10SM 30/19 A3000 RMK AO2
KHNR 152055Z AUTO 35007KT 10SM 30/18 A3000 RMK AO2
KHNR 152035Z AUTO 33009KT 10SM 30/19 A3001 RMK AO2
KHNR 152015Z AUTO VRB05KT 10SM 29/19 A3002 RMK AO2
KHNR 151955Z AUTO 36006KT 10SM 30/19 A3002 RMK AO2
KHNR 151935Z AUTO VRB03KT 10SM 29/20 A3002 RMK AO2 PWINO
KHNR 151915Z AUTO 32006KT 10SM 29/20 A3002 RMK AO2 PWINO
KHNR 151855Z AUTO 32005KT 10SM 29/20 A3003 RMK AO2 PWINO
KHNR 151835Z AUTO 33006KT 10SM 29/22 A3003 RMK AO2
KHNR 151815Z AUTO 01003KT 10SM 29/21 A3003 RMK AO2
KHNR 151755Z AUTO VRB06KT 10SM 28/21 A3003 RMK AO2 PWINO
KHNR 151735Z AUTO 33006KT 10SM 28/21 A3004 RMK AO2
KHNR 151715Z AUTO VRB06G11KT 10SM 28/21 A3004 RMK AO2
KHNR 151655Z AUTO 33007KT 300V040 10SM 28/21 A3004 RMK AO2
KHNR 151635Z AUTO 30005KT 10SM 28/21 A3004 RMK AO2
KHNR 151615Z AUTO 31005G11KT 10SM 27/21 A3004 RMK AO2 PWINO
KHNR 151555Z AUTO 31006KT 10SM 27/21 A3004 RMK AO2 PWINO
KHNR 151535Z AUTO 32004KT 10SM 27/22 A3004 RMK AO2
KHNR 151515Z AUTO VRB03KT 10SM 27/22 A3004 RMK AO2
KHNR 151455Z AUTO 00000KT 10SM 25/23 A3004 RMK AO2
KHNR 151435Z AUTO 00000KT 10SM 25/24 A3005 RMK AO2
KHNR 151415Z AUTO 00000KT 10SM 24/23 A3004 RMK AO2
KHNR 151355Z AUTO 00000KT 10SM 23/23 A3004 RMK AO2
KHNR 151335Z AUTO 00000KT 9SM 22/22 A3004 RMK AO2
KHNR 151315Z AUTO 00000KT 9SM 21/21 A3004 RMK AO2
KHNR 151255Z AUTO 00000KT 3/4SM BR 20/20 A3003 RMK AO2
KHNR 151235Z AUTO 00000KT M1/4SM FG 19/19 A3003 RMK AO2
KHNR 151215Z AUTO 00000KT M1/4SM FG 19/19 A3003 RMK AO2
KHNR 151155Z AUTO 00000KT 1/4SM FG 19/19 A3002 RMK AO2
KHNR 151135Z AUTO 00000KT M1/4SM FG 18/18 A3002 RMK AO2
KHNR 151115Z AUTO 00000KT M1/4SM FG 18/18 A3001 RMK AO2
KHNR 151055Z AUTO 00000KT 1/4SM FG 18/18 A3001 RMK AO2
KHNR 151035Z AUTO 00000KT M1/4SM FG 18/18 A3001 RMK AO2
KHNR 151015Z AUTO 00000KT M1/4SM FG 18/18 A3001 RMK AO2
KHNR 150955Z AUTO 00000KT M1/4SM FG 19/19 A3001 RMK AO2
KHNR 150935Z AUTO 00000KT 1/4SM FG 18/18 A3001 RMK AO2
KHNR 150915Z AUTO 00000KT 1/4SM FG 18/19 A3001 RMK AO2
KHNR 150855Z AUTO 00000KT 3SM BR 19/19 A3000 RMK AO2
KHNR 150835Z AUTO 01003KT 1/2SM FG 19/19 A3001 RMK AO2
KHNR 150815Z AUTO 00000KT 2SM BR 19/19 A3001 RMK AO2
KHNR 150755Z AUTO 00000KT 4SM BR 19/19 A3001 RMK AO2
KHNR 150735Z AUTO 00000KT 3/4SM BR 19/19 A3001 RMK AO2
KHNR 150715Z AUTO 00000KT 7SM 20/20 A3001 RMK AO2
KHNR 150655Z AUTO 00000KT 4SM BR 19/20 A3001 RMK AO2
KHNR 150635Z AUTO 00000KT 6SM BR 20/20 A3001 RMK AO2
KHNR 150615Z AUTO 00000KT 9SM 20/20 A3001 RMK AO2
KHNR 150555Z AUTO 00000KT 8SM 20/20 A3001 RMK AO2
KHNR 150535Z AUTO 00000KT 10SM 20/20 A3002 RMK AO2
KHNR 150515Z AUTO 00000KT 10SM 20/20 A3002 RMK AO2
KHNR 150455Z AUTO 00000KT 10SM 21/21 A3002 RMK AO2
KHNR 150435Z AUTO 00000KT 10SM 21/21 A3002 RMK AO2
KHNR 150415Z AUTO 00000KT 10SM 22/21 A3002 RMK AO2
KHNR 150355Z AUTO 00000KT 10SM 22/21 A3002 RMK AO2
KHNR 150335Z AUTO 00000KT 10SM 22/22 A3002 RMK AO2
KHNR 150315Z AUTO 00000KT 10SM 22/22 A3002 RMK AO2
KHNR 150255Z AUTO 00000KT 10SM 22/22 A3001 RMK AO2
KHNR 150235Z AUTO 00000KT 10SM 23/22 A3000 RMK AO2
KHNR 150215Z AUTO 00000KT 10SM 24/22 A3000 RMK AO2
KHNR 150155Z AUTO 00000KT 10SM 24/23 A2999 RMK AO2
KHNR 150135Z AUTO 00000KT 10SM 25/23 A2998 RMK AO2
KHNR 150115Z AUTO 00000KT 10SM 26/23 A2998 RMK AO2
KHNR 150055Z AUTO 00000KT 10SM 27/22 A2998 RMK AO2
KHNR 150035Z AUTO 00000KT 10SM 27/22 A2998 RMK AO2
KHNR 150015Z AUTO 35004KT 10SM 28/22 A2998 RMK AO2
KHNR 142355Z AUTO 00000KT 10SM 28/22 A2998 RMK AO2
KHNR 142335Z AUTO 33005KT 10SM 28/21 A2998 RMK AO2
KHNR 142315Z AUTO 33006KT 10SM 28/22 A2999 RMK AO2
KHNR 142255Z AUTO 00000KT 10SM 28/22 A2999 RMK AO2
KHNR 142235Z AUTO 00000KT 10SM 29/20 A2999 RMK AO2
KHNR 142215Z AUTO 35005KT 10SM 29/22 A2999 RMK AO2
KHNR 142155Z AUTO 01004KT 10SM 28/21 A3000 RMK AO2 PWINO
KHNR 142135Z AUTO 00000KT 10SM 28/21 A3000 RMK AO2 PWINO
KHNR 142115Z AUTO 01004KT 10SM 28/21 A3001 RMK AO2 PWINO
KHNR 142055Z AUTO VRB04KT 10SM 29/22 A3001 RMK AO2 PWINO
KHNR 142035Z AUTO 34007KT 10SM 28/22 A3001 RMK AO2 PWINO
KHNR 142015Z AUTO VRB03KT 10SM 28/21 A3002 RMK AO2 PWINO
KHNR 141955Z AUTO VRB04KT 10SM 28/21 A3002 RMK AO2 PWINO
KHNR 141935Z AUTO VRB06KT 10SM 29/21 A3003 RMK AO2 PWINO
KHNR 141915Z AUTO 00000KT 10SM 28/21 A3003 RMK AO2 PWINO
KHNR 141855Z AUTO 02006KT 10SM 28/22 A3003 RMK AO2 PWINO
KHNR 141835Z AUTO 36006KT 10SM 28/22 A3004 RMK AO2
KHNR 141815Z AUTO 33007KT 10SM 27/22 A3004 RMK AO2
KHNR 141755Z AUTO 03005KT 10SM 28/22 A3004 RMK AO2 PWINO
KHNR 141735Z AUTO 04005KT 10SM 27/21 A3005 RMK AO2
KHNR 141715Z AUTO 01007KT 10SM 26/21 A3005 RMK AO2
KHNR 141655Z AUTO 01006KT 10SM 26/22 A3005 RMK AO2
KHNR 141635Z AUTO 33006KT 10SM 26/22 A3005 RMK AO2
KHNR 141615Z AUTO 02008KT 10SM 26/22 A3005 RMK AO2
KHNR 141555Z AUTO 36009KT 10SM 25/22 A3005 RMK AO2
KHNR 141535Z AUTO 01006KT 10SM 25/22 A3005 RMK AO2
KHNR 141515Z AUTO 36005KT 10SM 25/22 A3005 RMK AO2
KHNR 141455Z AUTO VRB06KT 10SM 24/22 A3005 RMK AO2
KHNR 141435Z AUTO VRB04KT 10SM 24/22 A3005 RMK AO2
KHNR 141415Z AUTO VRB03KT 10SM 23/22 A3006 RMK AO2
KHNR 141355Z AUTO 03004KT 10SM 23/22 A3005 RMK AO2
KHNR 141335Z AUTO 36004KT 10SM 22/22 A3005 RMK AO2
KHNR 141315Z AUTO 36003KT 9SM 22/22 A3006 RMK AO2
KHNR 141255Z AUTO 00000KT 8SM 21/21 A3005 RMK AO2
KHNR 141235Z AUTO 29003KT 4SM BR 21/21 A3006 RMK AO2
KHNR 141215Z AUTO 00000KT 2SM BR 21/21 A3006 RMK AO2
KHNR 141155Z AUTO 00000KT 1 1/4SM BR 20/20 A3005 RMK AO2
KHNR 141135Z AUTO 00000KT 3/4SM BR 20/20 A3005 RMK AO2